Lanchester, United Kingdom
Current Conditions -  °F | °C
As of 1:20 AM on Saturday 20 Dec 2014 (Local Time) from EGNT Reporting Station
Light Rain Light Rain  
Wind Chill: 32°   Ceiling: 3300
Heat Index: 43°   Visibility: 6mi
Dew Point: 37°   Wind: 31mph
Humidity: 81%   Direction: 270°W
Pressure: 29.83"   Gusts: 43mph
Location:  54.82°N, 1.74°W
Report Text: EGNT 200120Z 27027G37KT 9999 -RA SCT017 BKN033 06/03 Q1010
Loading
Personal Weather Stations






























Interactive Weather Map New forecast layout! Learn more

10-Day Weather Forecast

Advertisements
Track Severe Weather on mobile